createdAt,value
2023-04-01T00:03:44.956Z,79.52
2023-04-01T00:07:45.901Z,79.60
2023-04-01T00:11:45.410Z,79.63
2023-04-01T00:15:45.622Z,78.96
2023-04-01T00:19:44.814Z,79.32
2023-04-01T00:23:45.106Z,78.85
2023-04-01T00:27:45.284Z,78.17
2023-04-01T00:31:45.015Z,78.58
2023-04-01T00:35:45.144Z,78.59
2023-04-01T00:39:45.984Z,78.41
2023-04-01T00:43:47.004Z,78.11
2023-04-01T00:47:45.337Z,78.63
2023-04-01T00:51:48.061Z,77.98
2023-04-01T00:55:51.612Z,78.48
2023-04-01T00:59:49.791Z,78.27
2023-04-01T01:03:45.328Z,78.61
2023-04-01T01:11:54.085Z,78.34
2023-04-01T01:15:50.085Z,78.76
2023-04-01T01:19:57.226Z,78.96
2023-04-01T01:24:03.298Z,79.24
2023-04-01T01:27:54.303Z,78.94
2023-04-01T01:31:56.268Z,78.85
2023-04-01T01:35:48.351Z,78.60
2023-04-01T01:39:56.138Z,78.70
2023-04-01T01:43:48.483Z,78.15
2023-04-01T01:47:46.220Z,78.31
2023-04-01T01:51:45.486Z,78.62
2023-04-01T01:55:47.192Z,78.41
2023-04-01T01:59:48.506Z,78.76
2023-04-01T02:03:46.718Z,78.91
2023-04-01T02:07:53.978Z,79.22
2023-04-01T02:11:49.628Z,79.49
2023-04-01T02:15:49.394Z,79.41
2023-04-01T02:19:49.859Z,79.61
2023-04-01T02:23:46.927Z,79.50
2023-04-01T02:31:46.136Z,79.33
2023-04-01T02:35:45.466Z,79.29
2023-04-01T02:39:45.462Z,79.34
2023-04-01T02:43:45.128Z,78.98
2023-04-01T02:47:45.545Z,79.01
2023-04-01T02:51:45.287Z,79.34
2023-04-01T02:55:45.385Z,79.05
2023-04-01T02:59:45.502Z,79.34
2023-04-01T03:03:45.523Z,79.15
2023-04-01T03:07:45.646Z,79.20
2023-04-01T03:15:45.373Z,79.23
2023-04-01T03:19:45.771Z,79.18
2023-04-01T03:23:45.960Z,78.68
2023-04-01T03:31:45.812Z,78.35
2023-04-01T03:35:45.591Z,78.40
2023-04-01T03:39:45.472Z,78.06
2023-04-01T03:47:45.579Z,78.18
2023-04-01T03:51:45.482Z,77.75
2023-04-01T03:55:45.514Z,77.61
2023-04-01T03:59:45.402Z,78.11
2023-04-01T04:03:45.821Z,78.28
2023-04-01T04:07:45.313Z,78.03
2023-04-01T04:15:45.438Z,77.96
2023-04-01T04:19:45.406Z,77.64
2023-04-01T04:23:45.505Z,77.33
2023-04-01T04:27:45.547Z,77.43
2023-04-01T04:31:45.990Z,77.91
2023-04-01T04:35:46.010Z,77.76
2023-04-01T04:39:46.141Z,77.79
2023-04-01T04:43:51.022Z,77.96
2023-04-01T04:47:45.802Z,78.57
2023-04-01T04:51:45.582Z,78.33
2023-04-01T04:55:46.230Z,78.36
2023-04-01T04:59:45.959Z,78.54
2023-04-01T05:03:46.357Z,78.42
2023-04-01T05:07:45.705Z,78.52
2023-04-01T05:11:45.979Z,78.69
2023-04-01T05:15:45.659Z,78.71
2023-04-01T05:19:46.014Z,78.85
2023-04-01T05:23:45.968Z,78.65
2023-04-01T05:27:45.970Z,78.49
2023-04-01T05:31:45.734Z,78.09
2023-04-01T05:35:45.829Z,78.23
2023-04-01T05:39:46.259Z,77.93
2023-04-01T05:43:45.739Z,77.84
2023-04-01T05:51:45.949Z,77.71
2023-04-01T05:55:46.077Z,77.53
2023-04-01T05:59:46.088Z,77.34
2023-04-01T06:03:45.779Z,77.35
2023-04-01T06:07:46.504Z,77.22
2023-04-01T06:15:57.634Z,78.15
2023-04-01T06:19:55.477Z,77.56
2023-04-01T06:23:58.648Z,77.78
2023-04-01T06:28:01.264Z,77.42
2023-04-01T06:32:00.524Z,77.48
2023-04-01T06:39:56.402Z,77.63
2023-04-01T06:43:59.668Z,77.06
2023-04-01T06:47:57.434Z,77.17
2023-04-01T06:51:54.685Z,77.32
2023-04-01T06:55:48.244Z,77.48
2023-04-01T06:59:47.635Z,78.09
2023-04-01T07:03:51.704Z,78.29
2023-04-01T07:07:50.466Z,78.14
2023-04-01T07:11:46.443Z,77.85
2023-04-01T07:15:56.737Z,77.53
2023-04-01T07:19:52.834Z,77.55
2023-04-01T07:23:47.499Z,77.43
2023-04-01T07:27:47.026Z,77.37
2023-04-01T07:35:55.838Z,77.64
2023-04-01T07:39:54.787Z,77.49
2023-04-01T07:44:00.054Z,77.05
2023-04-01T07:47:59.689Z,77.38
2023-04-01T07:51:58.791Z,77.16
2023-04-01T07:55:54.825Z,77.38
2023-04-01T07:59:52.192Z,77.27
2023-04-01T08:04:04.789Z,77.38
2023-04-01T08:07:55.367Z,77.22
2023-04-01T08:15:53.317Z,77.28
2023-04-01T08:23:49.663Z,77.21
2023-04-01T08:31:50.576Z,77.10
2023-04-01T08:35:51.868Z,77.41
2023-04-01T08:39:52.126Z,77.83
2023-04-01T08:44:05.360Z,77.32
2023-04-01T08:48:01.529Z,77.72
2023-04-01T08:52:06.015Z,77.64
2023-04-01T08:55:59.655Z,77.75
2023-04-01T09:00:01.020Z,77.79
2023-04-01T09:04:05.692Z,77.83
2023-04-01T09:07:56.187Z,77.83
2023-04-01T09:12:05.984Z,77.42
2023-04-01T09:15:58.573Z,77.57
2023-04-01T09:20:05.458Z,77.73
2023-04-01T09:24:06.183Z,77.48
2023-04-01T09:27:56.193Z,77.33
2023-04-01T09:35:48.836Z,77.72
2023-04-01T09:39:56.321Z,77.37
2023-04-01T09:44:01.580Z,77.24
2023-04-01T09:48:00.920Z,76.99
2023-04-01T09:52:00.663Z,76.93
2023-04-01T09:56:06.060Z,77.14
2023-04-01T10:00:00.041Z,77.25
2023-04-01T10:04:07.108Z,77.93
2023-04-01T10:08:06.298Z,77.39
2023-04-01T10:16:00.284Z,77.37
2023-04-01T10:23:57.441Z,77.15
2023-04-01T10:27:58.419Z,76.97
2023-04-01T10:32:05.643Z,76.97
2023-04-01T10:36:06.353Z,77.08
2023-04-01T10:40:06.346Z,76.65
2023-04-01T10:43:58.624Z,76.07
2023-04-01T10:48:06.476Z,76.18
2023-04-01T10:52:06.382Z,76.41
2023-04-01T10:56:06.358Z,76.22
2023-04-01T11:00:06.666Z,76.28
2023-04-01T11:04:06.374Z,75.97
2023-04-01T11:08:07.341Z,75.95
2023-04-01T11:12:03.815Z,75.40
2023-04-01T11:16:06.501Z,74.73
2023-04-01T11:20:06.295Z,73.76
2023-04-01T11:24:04.521Z,74.36
2023-04-01T11:28:01.757Z,73.87
2023-04-01T11:31:53.772Z,73.56
2023-04-01T11:35:58.630Z,73.22
2023-04-01T11:39:58.400Z,73.01
2023-04-01T11:43:55.405Z,72.77
2023-04-01T11:47:53.999Z,72.53
2023-04-01T11:52:01.363Z,72.22
2023-04-01T11:55:55.563Z,72.75
2023-04-01T11:59:58.568Z,72.65
2023-04-01T12:03:56.833Z,72.69
2023-04-01T12:08:01.619Z,72.47
2023-04-01T12:12:02.459Z,72.63
2023-04-01T12:16:04.885Z,72.99
2023-04-01T12:19:53.613Z,72.63
2023-04-01T12:24:06.654Z,72.40
2023-04-01T12:28:00.227Z,72.15
2023-04-01T12:31:56.950Z,72.48
2023-04-01T12:36:00.654Z,71.95
2023-04-01T12:40:02.511Z,72.65
2023-04-01T12:44:06.634Z,72.21
2023-04-01T12:48:03.280Z,71.96
2023-04-01T12:55:50.743Z,71.75
2023-04-01T13:00:03.817Z,71.04
2023-04-01T13:04:05.829Z,71.42
2023-04-01T13:08:02.443Z,71.63
2023-04-01T13:12:01.161Z,71.64
2023-04-01T13:15:52.299Z,71.62
2023-04-01T13:23:56.171Z,71.05
2023-04-01T13:27:51.641Z,71.28
2023-04-01T13:31:55.615Z,70.42
2023-04-01T13:35:57.612Z,70.35
2023-04-01T13:40:03.765Z,70.29
2023-04-01T13:43:52.776Z,70.03
2023-04-01T13:48:00.789Z,70.07
2023-04-01T13:52:03.514Z,69.73
2023-04-01T13:55:55.000Z,69.95
2023-04-01T14:00:03.560Z,69.32
2023-04-01T14:04:06.736Z,68.97
2023-04-01T14:08:00.494Z,68.43
2023-04-01T14:11:55.628Z,69.36
2023-04-01T14:20:02.977Z,69.25
2023-04-01T14:23:56.253Z,69.40
2023-04-01T14:28:00.652Z,69.59
2023-04-01T14:32:00.171Z,69.33
2023-04-01T14:35:59.814Z,69.91
2023-04-01T14:40:05.199Z,69.80
2023-04-01T14:44:02.020Z,69.23
2023-04-01T14:47:50.903Z,69.12
2023-04-01T14:51:48.571Z,69.98
2023-04-01T14:55:51.318Z,69.78
2023-04-01T14:59:50.211Z,69.35
2023-04-01T15:03:57.231Z,69.78
2023-04-01T15:08:02.267Z,69.75
2023-04-01T15:11:54.891Z,69.65
2023-04-01T15:16:03.178Z,69.50
2023-04-01T15:23:57.541Z,69.90
2023-04-01T15:27:55.965Z,69.83
2023-04-01T15:31:52.895Z,69.97
2023-04-01T15:35:54.166Z,69.65
2023-04-01T15:39:55.599Z,70.04
2023-04-01T15:43:49.217Z,69.57
2023-04-01T15:48:00.415Z,69.67
2023-04-01T15:52:02.682Z,69.82
2023-04-01T15:55:54.809Z,69.49
2023-04-01T16:00:02.689Z,69.57
2023-04-01T16:03:55.617Z,69.62
2023-04-01T16:08:04.025Z,69.21
2023-04-01T16:11:57.366Z,68.68
2023-04-01T16:15:57.735Z,69.16
2023-04-01T16:19:52.971Z,69.32
2023-04-01T16:23:50.650Z,69.22
2023-04-01T16:27:56.133Z,69.03
2023-04-01T16:31:55.749Z,69.03
2023-04-01T16:35:53.557Z,68.31
2023-04-01T16:39:54.512Z,68.59
2023-04-01T16:43:54.819Z,68.34
2023-04-01T16:47:52.096Z,67.31
2023-04-01T16:55:53.014Z,68.00
2023-04-01T16:59:55.147Z,67.96
2023-04-01T17:03:53.295Z,67.46
2023-04-01T17:07:59.688Z,68.08
2023-04-01T17:11:56.352Z,68.10
2023-04-01T17:16:02.461Z,68.71
2023-04-01T17:20:01.712Z,68.70
2023-04-01T17:23:51.500Z,68.90
2023-04-01T17:27:57.542Z,68.62
2023-04-01T17:32:01.011Z,68.54
2023-04-01T17:43:55.806Z,68.81
2023-04-01T17:47:55.899Z,68.82
2023-04-01T17:51:57.015Z,68.83
2023-04-01T17:56:02.831Z,69.19
2023-04-01T17:59:59.579Z,70.20
2023-04-01T18:04:00.217Z,70.76
2023-04-01T18:11:58.535Z,72.18
2023-04-01T18:16:00.054Z,72.87
2023-04-01T18:24:01.538Z,72.93
2023-04-01T18:27:52.122Z,73.75
2023-04-01T18:31:51.792Z,74.30
2023-04-01T18:35:51.820Z,74.28
2023-04-01T18:43:58.450Z,74.65
2023-04-01T18:47:57.894Z,75.14
2023-04-01T18:51:53.791Z,75.37
2023-04-01T18:55:50.605Z,75.85
2023-04-01T18:59:52.974Z,76.00
2023-04-01T19:03:55.661Z,76.02
2023-04-01T19:07:49.864Z,76.26
2023-04-01T19:12:00.105Z,75.90
2023-04-01T19:15:56.007Z,75.70
2023-04-01T19:24:01.195Z,76.19
2023-04-01T19:27:51.732Z,75.66
2023-04-01T19:31:58.824Z,76.11
2023-04-01T19:35:59.654Z,75.74
2023-04-01T19:39:56.111Z,75.70
2023-04-01T19:43:58.843Z,75.27
2023-04-01T19:48:00.289Z,75.88
2023-04-01T19:51:54.198Z,75.54
2023-04-01T19:55:54.516Z,75.77
2023-04-01T19:59:53.307Z,76.12
2023-04-01T20:03:52.256Z,75.96
2023-04-01T20:07:52.805Z,75.80
2023-04-01T20:16:00.099Z,75.73
2023-04-01T20:19:57.954Z,75.15
2023-04-01T20:23:55.502Z,75.14
2023-04-01T20:27:53.505Z,75.15
2023-04-01T20:31:59.188Z,75.03
2023-04-01T20:36:03.573Z,75.06
2023-04-01T20:40:07.823Z,74.71
2023-04-01T20:43:58.974Z,74.78
2023-04-01T20:48:05.196Z,74.89
2023-04-01T20:51:54.712Z,74.54
2023-04-01T20:56:06.389Z,74.86
2023-04-01T21:00:08.082Z,74.88
2023-04-01T21:04:02.552Z,74.52
2023-04-01T21:07:55.996Z,74.60
2023-04-01T21:11:53.669Z,74.63
2023-04-01T21:15:58.269Z,74.46
2023-04-01T21:20:09.590Z,74.39
2023-04-01T21:23:58.284Z,74.44
2023-04-01T21:28:00.515Z,74.34
2023-04-01T21:32:04.506Z,74.41
2023-04-01T21:36:00.190Z,73.92
2023-04-01T21:39:59.406Z,74.13
2023-04-01T21:44:05.218Z,74.17
2023-04-01T21:48:08.308Z,73.99
2023-04-01T21:52:07.975Z,73.83
2023-04-01T21:56:08.107Z,73.80
2023-04-01T22:00:11.020Z,73.87
2023-04-01T22:03:59.137Z,73.71
2023-04-01T22:07:59.292Z,73.71
2023-04-01T22:11:55.705Z,73.68
2023-04-01T22:16:00.841Z,73.74
2023-04-01T22:19:56.754Z,73.62
2023-04-01T22:23:56.615Z,73.59
2023-04-01T22:27:53.131Z,73.84
2023-04-01T22:31:54.559Z,73.80
2023-04-01T22:35:57.737Z,73.60
2023-04-01T22:40:00.065Z,73.80
2023-04-01T22:48:01.225Z,73.88
2023-04-01T22:51:52.831Z,73.94
2023-04-01T22:55:53.590Z,74.01
2023-04-01T22:59:55.023Z,73.99
2023-04-01T23:03:51.526Z,74.23
2023-04-01T23:07:56.377Z,74.46
2023-04-01T23:11:55.281Z,74.50
2023-04-01T23:15:51.530Z,74.96
2023-04-01T23:19:56.325Z,74.76
2023-04-01T23:23:57.006Z,74.61
2023-04-01T23:27:53.787Z,75.12
2023-04-01T23:31:57.371Z,75.26
2023-04-01T23:39:51.429Z,75.39
2023-04-01T23:43:54.413Z,75.20
2023-04-01T23:47:50.496Z,75.20
2023-04-01T23:51:53.542Z,75.29
2023-04-01T23:55:48.970Z,75.61
